sensor_id;sensor_type;location;lat;lon;timestamp;pressure;altitude;pressure_sealevel;temperature;humidity
8294;BME280;4185;41.506;24.938;2023-04-05T00:02:25;92605.47;;;8.98;99.84
8294;BME280;4185;41.506;24.938;2023-04-05T00:04:54;92599.84;;;8.96;99.37
8294;BME280;4185;41.506;24.938;2023-04-05T00:07:24;92597.84;;;8.97;99.30
8294;BME280;4185;41.506;24.938;2023-04-05T00:09:51;92598.34;;;8.95;99.31
8294;BME280;4185;41.506;24.938;2023-04-05T00:12:18;92598.34;;;8.95;98.44
8294;BME280;4185;41.506;24.938;2023-04-05T00:14:44;92591.47;;;8.94;98.52
8294;BME280;4185;41.506;24.938;2023-04-05T00:17:11;92591.22;;;8.92;98.26
8294;BME280;4185;41.506;24.938;2023-04-05T00:19:38;92600.84;;;8.82;98.41
8294;BME280;4185;41.506;24.938;2023-04-05T00:22:05;92594.19;;;8.83;99.67
8294;BME280;4185;41.506;24.938;2023-04-05T00:24:37;92596.63;;;8.87;99.47
8294;BME280;4185;41.506;24.938;2023-04-05T00:27:07;92600.34;;;8.89;98.80
8294;BME280;4185;41.506;24.938;2023-04-05T00:29:34;92597.13;;;8.91;99.19
8294;BME280;4185;41.506;24.938;2023-04-05T00:32:01;92603.28;;;8.91;98.88
8294;BME280;4185;41.506;24.938;2023-04-05T00:34:28;92601.06;;;8.90;97.35
8294;BME280;4185;41.506;24.938;2023-04-05T00:36:57;92602.03;;;8.92;97.46
8294;BME280;4185;41.506;24.938;2023-04-05T00:39:23;92600.34;;;8.89;97.26
8294;BME280;4185;41.506;24.938;2023-04-05T00:41:51;92594.69;;;8.87;97.50
8294;BME280;4185;41.506;24.938;2023-04-05T00:44:18;92601.34;;;8.86;97.45
8294;BME280;4185;41.506;24.938;2023-04-05T00:46:45;92601.34;;;8.75;99.20
8294;BME280;4185;41.506;24.938;2023-04-05T00:49:12;92597.16;;;8.74;98.83
8294;BME280;4185;41.506;24.938;2023-04-05T00:51:39;92601.59;;;8.72;99.47
8294;BME280;4185;41.506;24.938;2023-04-05T00:54:06;92606.00;;;8.75;99.04
8294;BME280;4185;41.506;24.938;2023-04-05T00:56:33;92601.34;;;8.75;99.42
8294;BME280;4185;41.506;24.938;2023-04-05T00:59:02;92609.72;;;8.77;99.01
8294;BME280;4185;41.506;24.938;2023-04-05T01:01:31;92606.50;;;8.79;98.26
8294;BME280;4185;41.506;24.938;2023-04-05T01:04:00;92604.28;;;8.77;98.66
8294;BME280;4185;41.506;24.938;2023-04-05T01:06:42;92607.75;;;8.78;98.85
8294;BME280;4185;41.506;24.938;2023-04-05T01:09:17;92608.72;;;8.80;98.13
8294;BME280;4185;41.506;24.938;2023-04-05T01:11:46;92608.72;;;8.80;98.05
8294;BME280;4185;41.506;24.938;2023-04-05T01:14:15;92607.25;;;8.79;98.00
8294;BME280;4185;41.506;24.938;2023-04-05T01:16:42;92618.84;;;8.74;97.78
8294;BME280;4185;41.506;24.938;2023-04-05T01:19:09;92612.16;;;8.75;97.63
8294;BME280;4185;41.506;24.938;2023-04-05T01:24:58;92612.41;;;8.77;98.41
8294;BME280;4185;41.506;24.938;2023-04-05T01:27:43;92608.22;;;8.76;98.47
8294;BME280;4185;41.506;24.938;2023-04-05T01:30:17;92609.47;;;8.75;97.81
8294;BME280;4185;41.506;24.938;2023-04-05T01:32:53;92611.69;;;8.71;97.01
8294;BME280;4185;41.506;24.938;2023-04-05T01:35:26;92617.38;;;8.68;97.70
8294;BME280;4185;41.506;24.938;2023-04-05T01:37:58;92620.31;;;8.64;98.93
8294;BME280;4185;41.506;24.938;2023-04-05T01:40:26;92615.16;;;8.55;99.59
8294;BME280;4185;41.506;24.938;2023-04-05T01:42:53;92618.09;;;8.51;98.99
8294;BME280;4185;41.506;24.938;2023-04-05T01:45:22;92611.44;;;8.52;98.64
8294;BME280;4185;41.506;24.938;2023-04-05T01:47:48;92614.66;;;8.51;98.88
8294;BME280;4185;41.506;24.938;2023-04-05T01:50:15;92618.34;;;8.53;99.36
8294;BME280;4185;41.506;24.938;2023-04-05T01:52:42;92614.91;;;8.53;99.09
8294;BME280;4185;41.506;24.938;2023-04-05T01:55:09;92616.16;;;8.52;98.60
8294;BME280;4185;41.506;24.938;2023-04-05T01:57:36;92620.31;;;8.53;99.04
8294;BME280;4185;41.506;24.938;2023-04-05T02:00:03;92600.16;;;8.37;98.59
8294;BME280;4185;41.506;24.938;2023-04-05T02:02:32;92618.59;;;8.50;98.25
8294;BME280;4185;41.506;24.938;2023-04-05T02:04:58;92626.97;;;8.41;98.86
8294;BME280;4185;41.506;24.938;2023-04-05T02:07:25;92629.66;;;8.41;99.79
8294;BME280;4185;41.506;24.938;2023-04-05T02:09:52;92625.75;;;8.42;100.00
8294;BME280;4185;41.506;24.938;2023-04-05T02:12:19;92629.91;;;8.43;100.00
8294;BME280;4185;41.506;24.938;2023-04-05T02:14:47;92631.38;;;8.44;98.94
8294;BME280;4185;41.506;24.938;2023-04-05T02:17:13;92636.78;;;8.44;100.00
8294;BME280;4185;41.506;24.938;2023-04-05T02:19:43;92633.38;;;8.43;99.59
8294;BME280;4185;41.506;24.938;2023-04-05T02:22:11;92637.06;;;8.40;99.77
8294;BME280;4185;41.506;24.938;2023-04-05T02:24:39;92634.81;;;8.39;99.65
8294;BME280;4185;41.506;24.938;2023-04-05T02:27:06;92628.94;;;8.35;100.00
8294;BME280;4185;41.506;24.938;2023-04-05T02:29:33;92634.34;;;8.35;99.89
8294;BME280;4185;41.506;24.938;2023-04-05T02:32:00;92612.91;;;8.20;99.96
8294;BME280;4185;41.506;24.938;2023-04-05T02:34:27;92635.81;;;8.36;99.75
8294;BME280;4185;41.506;24.938;2023-04-05T02:36:55;92644.19;;;8.38;100.00
8294;BME280;4185;41.506;24.938;2023-04-05T02:39:22;92642.94;;;8.39;100.00
8294;BME280;4185;41.506;24.938;2023-04-05T02:41:48;92641.97;;;8.36;99.59
8294;BME280;4185;41.506;24.938;2023-04-05T02:44:15;92639.00;;;8.34;99.99
8294;BME280;4185;41.506;24.938;2023-04-05T02:46:42;92640.75;;;8.32;99.77
8294;BME280;4185;41.506;24.938;2023-04-05T02:49:08;92637.78;;;8.30;99.78
8294;BME280;4185;41.506;24.938;2023-04-05T02:51:35;92648.06;;;8.20;100.00
8294;BME280;4185;41.506;24.938;2023-04-05T02:54:04;92647.59;;;8.16;100.00
8294;BME280;4185;41.506;24.938;2023-04-05T02:56:31;92649.53;;;8.16;100.00
8294;BME280;4185;41.506;24.938;2023-04-05T02:58:57;92651.03;;;8.22;100.00
8294;BME280;4185;41.506;24.938;2023-04-05T03:01:24;92644.19;;;8.27;100.00
8294;BME280;4185;41.506;24.938;2023-04-05T03:03:52;92650.06;;;8.31;100.00
8294;BME280;4185;41.506;24.938;2023-04-05T03:06:19;92648.88;;;8.32;100.00
8294;BME280;4185;41.506;24.938;2023-04-05T03:08:46;92651.06;;;8.33;100.00
8294;BME280;4185;41.506;24.938;2023-04-05T03:11:15;92651.56;;;8.32;100.00
8294;BME280;4185;41.506;24.938;2023-04-05T03:13:41;92653.53;;;8.31;100.00
8294;BME280;4185;41.506;24.938;2023-04-05T03:16:08;92661.66;;;8.31;100.00
8294;BME280;4185;41.506;24.938;2023-04-05T03:18:35;92653.53;;;8.31;100.00
8294;BME280;4185;41.506;24.938;2023-04-05T03:21:02;92664.09;;;8.29;100.00
8294;BME280;4185;41.506;24.938;2023-04-05T03:23:30;92667.56;;;8.30;100.00
8294;BME280;4185;41.506;24.938;2023-04-05T03:25:58;92655.50;;;8.31;100.00
8294;BME280;4185;41.506;24.938;2023-04-05T03:28:27;92661.13;;;8.27;100.00
8294;BME280;4185;41.506;24.938;2023-04-05T03:30:54;92662.59;;;8.23;100.00
8294;BME280;4185;41.506;24.938;2023-04-05T03:33:21;92665.03;;;8.15;100.00
8294;BME280;4185;41.506;24.938;2023-04-05T03:35:48;92655.94;;;8.13;100.00
8294;BME280;4185;41.506;24.938;2023-04-05T03:38:15;92658.38;;;8.11;100.00
8294;BME280;4185;41.506;24.938;2023-04-05T03:40:42;92663.78;;;8.11;100.00
8294;BME280;4185;41.506;24.938;2023-04-05T03:43:09;92668.94;;;8.09;100.00
8294;BME280;4185;41.506;24.938;2023-04-05T03:45:37;92671.66;;;8.09;100.00
8294;BME280;4185;41.506;24.938;2023-04-05T03:48:04;92671.66;;;8.09;100.00
8294;BME280;4185;41.506;24.938;2023-04-05T03:50:31;92670.44;;;8.10;100.00
8294;BME280;4185;41.506;24.938;2023-04-05T03:52:57;92676.81;;;8.12;100.00
8294;BME280;4185;41.506;24.938;2023-04-05T03:55:24;92673.16;;;8.10;100.00
8294;BME280;4185;41.506;24.938;2023-04-05T03:57:51;92678.31;;;8.08;100.00
8294;BME280;4185;41.506;24.938;2023-04-05T04:00:18;92678.53;;;7.99;100.00
8294;BME280;4185;41.506;24.938;2023-04-05T04:02:49;92681.72;;;7.97;100.00
8294;BME280;4185;41.506;24.938;2023-04-05T04:05:17;92681.22;;;7.99;100.00
8294;BME280;4185;41.506;24.938;2023-04-05T04:07:44;92682.47;;;7.98;100.00
8294;BME280;4185;41.506;24.938;2023-04-05T04:10:13;92678.53;;;7.99;100.00
8294;BME280;4185;41.506;24.938;2023-04-05T04:12:41;92687.63;;;7.96;100.00
8294;BME280;4185;41.506;24.938;2023-04-05T04:15:08;92695.22;;;7.92;100.00
8294;BME280;4185;41.506;24.938;2023-04-05T04:17:36;92693.22;;;7.87;100.00
8294;BME280;4185;41.506;24.938;2023-04-05T04:20:06;92696.19;;;7.89;100.00
8294;BME280;4185;41.506;24.938;2023-04-05T04:22:36;92701.09;;;7.90;100.00
8294;BME280;4185;41.506;24.938;2023-04-05T04:25:06;92694.72;;;7.88;100.00
8294;BME280;4185;41.506;24.938;2023-04-05T04:27:36;92696.19;;;7.89;100.00
8294;BME280;4185;41.506;24.938;2023-04-05T04:30:06;92693.75;;;7.91;100.00
8294;BME280;4185;41.506;24.938;2023-04-05T04:32:35;92703.59;;;7.94;100.00
8294;BME280;4185;41.506;24.938;2023-04-05T04:35:22;92701.13;;;7.96;100.00
8294;BME280;4185;41.506;24.938;2023-04-05T04:37:54;92707.03;;;7.94;100.00
8294;BME280;4185;41.506;24.938;2023-04-05T04:40:22;92707.53;;;7.93;100.00
8294;BME280;4185;41.506;24.938;2023-04-05T04:42:50;92715.63;;;7.93;100.00
8294;BME280;4185;41.506;24.938;2023-04-05T04:45:18;92714.41;;;7.94;100.00
8294;BME280;4185;41.506;24.938;2023-04-05T04:47:46;92719.31;;;7.90;100.00
8294;BME280;4185;41.506;24.938;2023-04-05T04:50:14;92723.47;;;7.91;100.00
8294;BME280;4185;41.506;24.938;2023-04-05T04:52:46;92725.94;;;7.89;100.00
8294;BME280;4185;41.506;24.938;2023-04-05T04:55:13;92713.84;;;7.79;100.00
8294;BME280;4185;41.506;24.938;2023-04-05T04:57:40;92726.13;;;7.80;100.00
8294;BME280;4185;41.506;24.938;2023-04-05T05:00:08;92734.25;;;7.80;100.00
8294;BME280;4185;41.506;24.938;2023-04-05T05:02:37;92730.53;;;7.72;100.00
8294;BME280;4185;41.506;24.938;2023-04-05T05:05:05;92736.69;;;7.72;100.00
8294;BME280;4185;41.506;24.938;2023-04-05T05:07:33;92738.59;;;7.66;99.36
8294;BME280;4185;41.506;24.938;2023-04-05T05:10:01;92734.94;;;7.64;99.01
8294;BME280;4185;41.506;24.938;2023-04-05T05:12:28;92734.94;;;7.64;99.19
8294;BME280;4185;41.506;24.938;2023-04-05T05:14:55;92738.88;;;7.63;98.68
8294;BME280;4185;41.506;24.938;2023-04-05T05:17:22;92746.97;;;7.63;98.48
8294;BME280;4185;41.506;24.938;2023-04-05T05:19:49;92743.94;;;7.50;98.20
8294;BME280;4185;41.506;24.938;2023-04-05T05:22:16;92752.00;;;7.38;97.62
8294;BME280;4185;41.506;24.938;2023-04-05T05:24:43;92753.91;;;7.27;97.60
8294;BME280;4185;41.506;24.938;2023-04-05T05:27:12;92752.13;;;7.24;97.91
8294;BME280;4185;41.506;24.938;2023-04-05T05:29:39;92765.19;;;7.25;98.19
8294;BME280;4185;41.506;24.938;2023-04-05T05:32:07;92763.69;;;7.24;98.26
8294;BME280;4185;41.506;24.938;2023-04-05T05:34:39;92758.28;;;7.24;98.30
8294;BME280;4185;41.506;24.938;2023-04-05T05:37:05;92760.94;;;7.19;97.67
8294;BME280;4185;41.506;24.938;2023-04-05T05:39:33;92770.06;;;7.21;97.63
8294;BME280;4185;41.506;24.938;2023-04-05T05:42:00;92761.69;;;7.19;98.08
8294;BME280;4185;41.506;24.938;2023-04-05T05:44:29;92767.09;;;7.19;97.31
8294;BME280;4185;41.506;24.938;2023-04-05T05:46:56;92767.09;;;7.19;96.71
8294;BME280;4185;41.506;24.938;2023-04-05T05:49:23;92770.81;;;7.27;96.54
8294;BME280;4185;41.506;24.938;2023-04-05T05:51:50;92776.28;;;7.33;97.45
8294;BME280;4185;41.506;24.938;2023-04-05T05:54:18;92780.97;;;7.38;97.59
8294;BME280;4185;41.506;24.938;2023-04-05T05:56:45;92771.16;;;7.40;96.75
8294;BME280;4185;41.506;24.938;2023-04-05T05:59:12;92780.75;;;7.41;96.45
8294;BME280;4185;41.506;24.938;2023-04-05T06:01:40;92778.22;;;7.32;96.13
8294;BME280;4185;41.506;24.938;2023-04-05T06:04:11;92782.34;;;7.22;96.17
8294;BME280;4185;41.506;24.938;2023-04-05T06:06:37;92777.91;;;7.19;96.79
8294;BME280;4185;41.506;24.938;2023-04-05T06:09:05;92785.94;;;7.14;96.74
8294;BME280;4185;41.506;24.938;2023-04-05T06:11:31;92785.88;;;7.03;96.22
8294;BME280;4185;41.506;24.938;2023-04-05T06:13:58;92791.22;;;6.97;96.69
8294;BME280;4185;41.506;24.938;2023-04-05T06:16:25;92786.81;;;6.94;96.55
8294;BME280;4185;41.506;24.938;2023-04-05T06:18:54;92788.97;;;6.90;95.55
8294;BME280;4185;41.506;24.938;2023-04-05T06:21:21;92794.34;;;6.85;95.60
8294;BME280;4185;41.506;24.938;2023-04-05T06:23:48;92801.56;;;6.73;95.41
8294;BME280;4185;41.506;24.938;2023-04-05T06:26:16;92794.72;;;6.72;95.92
8294;BME280;4185;41.506;24.938;2023-04-05T06:28:44;92808.94;;;6.73;96.21
8294;BME280;4185;41.506;24.938;2023-04-05T06:31:12;92805.81;;;6.80;96.67
8294;BME280;4185;41.506;24.938;2023-04-05T06:33:40;92810.97;;;6.83;96.55
8294;BME280;4185;41.506;24.938;2023-04-05T06:36:08;92813.00;;;6.88;96.99
8294;BME280;4185;41.506;24.938;2023-04-05T06:38:35;92815.22;;;6.90;96.29
8294;BME280;4185;41.506;24.938;2023-04-05T06:41:03;92815.03;;;6.93;95.49
8294;BME280;4185;41.506;24.938;2023-04-05T06:43:30;92822.44;;;6.98;95.25
8294;BME280;4185;41.506;24.938;2023-04-05T06:45:57;92823.41;;;7.01;95.36
8294;BME280;4185;41.506;24.938;2023-04-05T06:48:25;92818.81;;;7.07;94.59
8294;BME280;4185;41.506;24.938;2023-04-05T06:50:56;92830.56;;;7.04;92.58
8294;BME280;4185;41.506;24.938;2023-04-05T06:53:24;92831.78;;;7.03;94.68
8294;BME280;4185;41.506;24.938;2023-04-05T06:55:52;92835.47;;;7.05;94.49
8294;BME280;4185;41.506;24.938;2023-04-05T06:58:19;92848.03;;;7.08;92.92
8294;BME280;4185;41.506;24.938;2023-04-05T07:00:46;92842.03;;;6.93;91.67
8294;BME280;4185;41.506;24.938;2023-04-05T07:03:12;92850.06;;;6.88;92.58
8294;BME280;4185;41.506;24.938;2023-04-05T07:05:40;92855.47;;;6.88;92.28
8294;BME280;4185;41.506;24.938;2023-04-05T07:08:07;92853.25;;;6.86;92.88
8294;BME280;4185;41.506;24.938;2023-04-05T07:10:38;92859.81;;;6.80;92.70
8294;BME280;4185;41.506;24.938;2023-04-05T07:13:06;92849.16;;;6.71;93.00
8294;BME280;4185;41.506;24.938;2023-04-05T07:15:32;92860.16;;;6.67;93.67
8294;BME280;4185;41.506;24.938;2023-04-05T07:17:59;92868.31;;;6.73;94.83
8294;BME280;4185;41.506;24.938;2023-04-05T07:20:26;92859.75;;;6.74;94.41
8294;BME280;4185;41.506;24.938;2023-04-05T07:22:53;92868.59;;;6.75;94.31
8294;BME280;4185;41.506;24.938;2023-04-05T07:25:20;92868.03;;;6.71;94.11
8294;BME280;4185;41.506;24.938;2023-04-05T07:27:48;92848.72;;;6.52;94.32
8294;BME280;4185;41.506;24.938;2023-04-05T07:30:17;92872.88;;;6.61;94.00
8294;BME280;4185;41.506;24.938;2023-04-05T07:32:43;92870.38;;;6.58;94.63
8294;BME280;4185;41.506;24.938;2023-04-05T07:35:10;92880.13;;;6.55;94.71
8294;BME280;4185;41.506;24.938;2023-04-05T07:37:37;92884.06;;;6.54;94.78
8294;BME280;4185;41.506;24.938;2023-04-05T07:40:05;92877.38;;;6.50;94.87
8294;BME280;4185;41.506;24.938;2023-04-05T07:42:32;92886.75;;;6.54;95.11
8294;BME280;4185;41.506;24.938;2023-04-05T07:45:00;92881.94;;;6.64;94.93
8294;BME280;4185;41.506;24.938;2023-04-05T07:47:27;92877.34;;;6.70;94.64
8294;BME280;4185;41.506;24.938;2023-04-05T07:49:53;92885.91;;;6.68;95.02
8294;BME280;4185;41.506;24.938;2023-04-05T07:52:20;92892.81;;;6.69;94.51
8294;BME280;4185;41.506;24.938;2023-04-05T07:54:47;92896.97;;;6.70;95.12
8294;BME280;4185;41.506;24.938;2023-04-05T07:57:15;92898.72;;;6.73;94.22
8294;BME280;4185;41.506;24.938;2023-04-05T07:59:42;92892.34;;;6.71;94.22
8294;BME280;4185;41.506;24.938;2023-04-05T08:02:13;92898.47;;;6.71;94.73
8294;BME280;4185;41.506;24.938;2023-04-05T08:04:40;92900.63;;;6.67;95.44
8294;BME280;4185;41.506;24.938;2023-04-05T08:07:07;92901.38;;;6.68;95.99
8294;BME280;4185;41.506;24.938;2023-04-05T08:09:34;92900.91;;;6.69;95.36
8294;BME280;4185;41.506;24.938;2023-04-05T08:12:01;92897.25;;;6.72;94.59
8294;BME280;4185;41.506;24.938;2023-04-05T08:14:28;92902.66;;;6.72;93.27
8294;BME280;4185;41.506;24.938;2023-04-05T08:16:55;92910.53;;;6.76;93.45
8294;BME280;4185;41.506;24.938;2023-04-05T08:19:23;92910.19;;;6.68;94.15
8294;BME280;4185;41.506;24.938;2023-04-05T08:21:50;92913.84;;;6.65;93.44
8294;BME280;4185;41.506;24.938;2023-04-05T08:24:17;92918.72;;;6.61;93.24
8294;BME280;4185;41.506;24.938;2023-04-05T08:26:44;92914.66;;;6.51;91.27
8294;BME280;4185;41.506;24.938;2023-04-05T08:29:11;92920.34;;;6.53;91.51
8294;BME280;4185;41.506;24.938;2023-04-05T08:31:38;92926.63;;;6.45;90.01
8294;BME280;4185;41.506;24.938;2023-04-05T08:34:05;92930.47;;;6.38;89.60
8294;BME280;4185;41.506;24.938;2023-04-05T08:36:34;92927.09;;;6.23;89.40
8294;BME280;4185;41.506;24.938;2023-04-05T08:39:00;92926.47;;;6.13;88.38
8294;BME280;4185;41.506;24.938;2023-04-05T08:41:34;92944.72;;;6.04;89.36
8294;BME280;4185;41.506;24.938;2023-04-05T08:44:02;92942.97;;;6.01;88.25
8294;BME280;4185;41.506;24.938;2023-04-05T08:46:31;92935.28;;;5.94;89.34
8294;BME280;4185;41.506;24.938;2023-04-05T08:48:59;92953.56;;;6.04;89.38
8294;BME280;4185;41.506;24.938;2023-04-05T08:51:26;92951.88;;;6.07;88.63
8294;BME280;4185;41.506;24.938;2023-04-05T08:53:54;92956.72;;;6.03;89.66
8294;BME280;4185;41.506;24.938;2023-04-05T08:56:25;92955.50;;;6.04;89.70
8294;BME280;4185;41.506;24.938;2023-04-05T08:58:57;92958.56;;;6.11;90.71
8294;BME280;4185;41.506;24.938;2023-04-05T09:01:28;92966.97;;;6.19;89.53
8294;BME280;4185;41.506;24.938;2023-04-05T09:03:56;92958.97;;;6.25;90.42
8294;BME280;4185;41.506;24.938;2023-04-05T09:06:23;92966.53;;;6.21;89.82
8294;BME280;4185;41.506;24.938;2023-04-05T09:08:53;92956.75;;;6.23;88.60
8294;BME280;4185;41.506;24.938;2023-04-05T09:11:22;92952.63;;;6.28;87.34
8294;BME280;4185;41.506;24.938;2023-04-05T09:13:49;92959.59;;;6.34;88.06
8294;BME280;4185;41.506;24.938;2023-04-05T09:16:16;92964.78;;;6.38;87.14
8294;BME280;4185;41.506;24.938;2023-04-05T09:18:43;92963.31;;;6.37;84.88
8294;BME280;4185;41.506;24.938;2023-04-05T09:21:10;92962.16;;;6.43;85.56
8294;BME280;4185;41.506;24.938;2023-04-05T09:23:37;92954.63;;;6.47;84.03
8294;BME280;4185;41.506;24.938;2023-04-05T09:26:21;92953.66;;;6.50;84.69
8294;BME280;4185;41.506;24.938;2023-04-05T09:28:48;92959.34;;;6.52;85.64
8294;BME280;4185;41.506;24.938;2023-04-05T09:31:31;92961.09;;;6.55;86.10
8294;BME280;4185;41.506;24.938;2023-04-05T09:33:59;92954.47;;;6.56;86.16
8294;BME280;4185;41.506;24.938;2023-04-05T09:36:26;92955.75;;;6.61;85.90
8294;BME280;4185;41.506;24.938;2023-04-05T09:39:03;92961.16;;;6.61;84.66
8294;BME280;4185;41.506;24.938;2023-04-05T09:41:32;92962.16;;;6.63;86.47
8294;BME280;4185;41.506;24.938;2023-04-05T09:43:59;92963.97;;;6.72;85.93
8294;BME280;4185;41.506;24.938;2023-04-05T09:46:28;92966.47;;;6.75;85.83
8294;BME280;4185;41.506;24.938;2023-04-05T09:48:56;92969.38;;;6.72;84.43
8294;BME280;4185;41.506;24.938;2023-04-05T09:51:23;92966.75;;;6.77;84.68
8294;BME280;4185;41.506;24.938;2023-04-05T09:53:57;92965.50;;;6.78;85.85
8294;BME280;4185;41.506;24.938;2023-04-05T09:56:25;92960.66;;;6.82;86.18
8294;BME280;4185;41.506;24.938;2023-04-05T09:58:57;92962.88;;;6.84;85.62
8294;BME280;4185;41.506;24.938;2023-04-05T10:01:26;92960.66;;;6.82;86.21
8294;BME280;4185;41.506;24.938;2023-04-05T10:03:53;92964.03;;;6.77;87.17
8294;BME280;4185;41.506;24.938;2023-04-05T10:06:22;92963.09;;;6.80;87.54
8294;BME280;4185;41.506;24.938;2023-04-05T10:08:50;92962.38;;;6.80;87.47
8294;BME280;4185;41.506;24.938;2023-04-05T10:11:17;92970.50;;;6.85;90.14
8294;BME280;4185;41.506;24.938;2023-04-05T10:13:45;92964.16;;;6.88;90.25
8294;BME280;4185;41.506;24.938;2023-04-05T10:16:20;92962.81;;;6.98;91.23
8294;BME280;4185;41.506;24.938;2023-04-05T10:18:50;92967.25;;;7.01;90.20
8294;BME280;4185;41.506;24.938;2023-04-05T10:21:20;92963.22;;;6.91;89.37
8294;BME280;4185;41.506;24.938;2023-04-05T10:24:01;92965.09;;;6.85;90.01
8294;BME280;4185;41.506;24.938;2023-04-05T10:26:35;92967.41;;;6.72;90.33
8294;BME280;4185;41.506;24.938;2023-04-05T10:29:11;92968.56;;;6.66;90.73
8294;BME280;4185;41.506;24.938;2023-04-05T10:31:48;92968.56;;;6.66;91.98
8294;BME280;4185;41.506;24.938;2023-04-05T10:34:26;92974.66;;;6.61;91.64
8294;BME280;4185;41.506;24.938;2023-04-05T10:37:00;92963.97;;;6.52;91.70
8294;BME280;4185;41.506;24.938;2023-04-05T10:39:28;92959.72;;;6.45;91.86
8294;BME280;4185;41.506;24.938;2023-04-05T10:41:59;92972.41;;;6.39;92.32
8294;BME280;4185;41.506;24.938;2023-04-05T10:44:29;92971.13;;;6.35;92.96
8294;BME280;4185;41.506;24.938;2023-04-05T10:46:59;92976.31;;;6.38;93.89
8294;BME280;4185;41.506;24.938;2023-04-05T10:49:32;92975.91;;;6.45;93.56
8294;BME280;4185;41.506;24.938;2023-04-05T10:52:02;92976.72;;;6.51;94.26
8294;BME280;4185;41.506;24.938;2023-04-05T10:54:32;92974.03;;;6.51;92.88
8294;BME280;4185;41.506;24.938;2023-04-05T10:57:02;92977.94;;;6.50;93.06
8294;BME280;4185;41.506;24.938;2023-04-05T10:59:30;92974.56;;;6.55;94.52
8294;BME280;4185;41.506;24.938;2023-04-05T11:01:59;92979.41;;;6.51;91.98
8294;BME280;4185;41.506;24.938;2023-04-05T11:04:26;92978.50;;;6.54;91.86
8294;BME280;4185;41.506;24.938;2023-04-05T11:07:12;92980.53;;;6.59;92.64
8294;BME280;4185;41.506;24.938;2023-04-05T11:09:49;92984.09;;;6.51;90.98
8294;BME280;4185;41.506;24.938;2023-04-05T11:12:16;92979.84;;;6.44;91.75
8294;BME280;4185;41.506;24.938;2023-04-05T11:14:43;92986.16;;;6.41;90.75
8294;BME280;4185;41.506;24.938;2023-04-05T11:17:25;92978.53;;;6.40;91.62
8294;BME280;4185;41.506;24.938;2023-04-05T11:20:01;92981.22;;;6.40;91.85
8294;BME280;4185;41.506;24.938;2023-04-05T11:22:29;92980.56;;;6.45;91.89
8294;BME280;4185;41.506;24.938;2023-04-05T11:24:57;92992.09;;;6.45;89.96
8294;BME280;4185;41.506;24.938;2023-04-05T11:27:27;92981.88;;;6.49;90.32
8294;BME280;4185;41.506;24.938;2023-04-05T11:29:55;92984.13;;;6.56;90.27
8294;BME280;4185;41.506;24.938;2023-04-05T11:32:39;92978.75;;;6.56;91.39
8294;BME280;4185;41.506;24.938;2023-04-05T11:35:12;92981.13;;;6.49;92.04
8294;BME280;4185;41.506;24.938;2023-04-05T11:37:52;92981.78;;;6.44;91.60
8294;BME280;4185;41.506;24.938;2023-04-05T11:40:24;92986.16;;;6.41;91.57
8294;BME280;4185;41.506;24.938;2023-04-05T11:42:58;92991.91;;;6.49;91.64
8294;BME280;4185;41.506;24.938;2023-04-05T11:45:25;92985.75;;;6.48;91.09
8294;BME280;4185;41.506;24.938;2023-04-05T11:47:53;92982.38;;;6.53;91.05
8294;BME280;4185;41.506;24.938;2023-04-05T11:50:20;92978.50;;;6.54;89.25
8294;BME280;4185;41.506;24.938;2023-04-05T11:53:11;92980.03;;;6.61;88.67
8294;BME280;4185;41.506;24.938;2023-04-05T11:55:38;92987.75;;;6.68;88.90
8294;BME280;4185;41.506;24.938;2023-04-05T11:58:13;92977.16;;;6.64;89.82
8294;BME280;4185;41.506;24.938;2023-04-05T12:00:40;92982.00;;;6.60;89.58
8294;BME280;4185;41.506;24.938;2023-04-05T12:03:11;92973.09;;;6.54;89.94
8294;BME280;4185;41.506;24.938;2023-04-05T12:05:48;92974.97;;;6.48;91.09
8294;BME280;4185;41.506;24.938;2023-04-05T12:08:15;92984.09;;;6.51;91.38
8294;BME280;4185;41.506;24.938;2023-04-05T12:10:42;92979.16;;;6.49;90.19
8294;BME280;4185;41.506;24.938;2023-04-05T12:13:10;92981.88;;;6.49;89.86
8294;BME280;4185;41.506;24.938;2023-04-05T12:15:37;92980.16;;;6.52;89.87
8294;BME280;4185;41.506;24.938;2023-04-05T12:18:13;92980.91;;;6.52;90.27
8294;BME280;4185;41.506;24.938;2023-04-05T12:20:40;92982.38;;;6.53;90.63
8294;BME280;4185;41.506;24.938;2023-04-05T12:23:07;92977.00;;;6.53;89.87
8294;BME280;4185;41.506;24.938;2023-04-05T12:25:34;92983.88;;;6.54;89.79
8294;BME280;4185;41.506;24.938;2023-04-05T12:28:04;92980.25;;;6.57;90.42
8294;BME280;4185;41.506;24.938;2023-04-05T12:30:31;92976.78;;;6.57;91.16
8294;BME280;4185;41.506;24.938;2023-04-05T12:33:06;92975.31;;;6.56;90.86
8294;BME280;4185;41.506;24.938;2023-04-05T12:35:35;92982.94;;;6.57;91.37
8294;BME280;4185;41.506;24.938;2023-04-05T12:38:03;92976.59;;;6.60;90.72
8294;BME280;4185;41.506;24.938;2023-04-05T12:40:31;92974.16;;;6.62;91.05
8294;BME280;4185;41.506;24.938;2023-04-05T12:43:03;92987.47;;;6.66;91.92
8294;BME280;4185;41.506;24.938;2023-04-05T12:45:30;92974.28;;;6.73;92.40
8294;BME280;4185;41.506;24.938;2023-04-05T12:48:07;92969.72;;;6.79;90.55
8294;BME280;4185;41.506;24.938;2023-04-05T12:50:41;92972.94;;;6.83;90.66
8294;BME280;4185;41.506;24.938;2023-04-05T12:53:08;92967.41;;;6.92;90.75
8294;BME280;4185;41.506;24.938;2023-04-05T12:55:41;92974.75;;;6.92;89.29
8294;BME280;4185;41.506;24.938;2023-04-05T12:58:09;92974.22;;;6.88;88.90
8294;BME280;4185;41.506;24.938;2023-04-05T13:00:37;92974.44;;;6.84;89.00
8294;BME280;4185;41.506;24.938;2023-04-05T13:03:04;92975.38;;;6.81;89.61
8294;BME280;4185;41.506;24.938;2023-04-05T13:05:31;92981.97;;;6.80;88.61
8294;BME280;4185;41.506;24.938;2023-04-05T13:07:59;92980.78;;;6.81;89.17
8294;BME280;4185;41.506;24.938;2023-04-05T13:10:26;92984.94;;;6.82;89.62
8294;BME280;4185;41.506;24.938;2023-04-05T13:12:52;92988.19;;;6.86;89.21
8294;BME280;4185;41.506;24.938;2023-04-05T13:15:19;92980.63;;;6.90;90.35
8294;BME280;4185;41.506;24.938;2023-04-05T13:17:46;92994.41;;;6.92;89.84
8294;BME280;4185;41.506;24.938;2023-04-05T13:20:14;92981.09;;;6.89;91.00
8294;BME280;4185;41.506;24.938;2023-04-05T13:22:41;92980.59;;;6.85;88.99
8294;BME280;4185;41.506;24.938;2023-04-05T13:25:10;92986.22;;;6.87;90.40
8294;BME280;4185;41.506;24.938;2023-04-05T13:27:36;92982.59;;;6.90;90.08
8294;BME280;4185;41.506;24.938;2023-04-05T13:30:04;92980.91;;;6.92;88.45
8294;BME280;4185;41.506;24.938;2023-04-05T13:32:31;92981.16;;;6.94;88.68